createdAt,value
2017-11-28T00:01:39.308Z,16.63
2017-11-28T00:04:06.712Z,16.60
2017-11-28T00:06:34.164Z,16.90
2017-11-28T00:09:01.577Z,16.73
2017-11-28T00:11:28.972Z,16.73
2017-11-28T00:13:56.371Z,16.03
2017-11-28T00:16:23.792Z,15.23
2017-11-28T00:18:51.188Z,15.30
2017-11-28T00:21:18.617Z,16.07
2017-11-28T00:23:46.038Z,17.10
2017-11-28T00:26:13.444Z,16.87
2017-11-28T00:28:40.864Z,16.63
2017-11-28T00:31:08.276Z,17.40
2017-11-28T00:33:35.686Z,16.50
2017-11-28T00:36:03.091Z,17.40
2017-11-28T00:38:30.484Z,19.63
2017-11-28T00:40:57.897Z,18.63
2017-11-28T00:43:25.288Z,18.00
2017-11-28T00:45:52.709Z,18.57
2017-11-28T00:48:20.123Z,16.53
2017-11-28T00:50:47.521Z,17.50
2017-11-28T00:53:14.979Z,16.37
2017-11-28T00:55:42.364Z,17.87
2017-11-28T00:58:09.842Z,17.53
2017-11-28T01:00:37.280Z,18.13
2017-11-28T01:03:04.670Z,17.47
2017-11-28T01:05:32.068Z,18.43
2017-11-28T01:07:59.500Z,18.60
2017-11-28T01:10:26.972Z,18.77
2017-11-28T01:12:54.358Z,17.17
2017-11-28T01:15:21.803Z,17.73
2017-11-28T01:17:49.200Z,16.13
2017-11-28T01:20:16.588Z,17.07
2017-11-28T01:22:43.995Z,16.93
2017-11-28T01:25:11.392Z,17.47
2017-11-28T01:27:38.800Z,17.47
2017-11-28T01:30:06.212Z,15.73
2017-11-28T01:32:33.632Z,17.57
2017-11-28T01:35:01.033Z,16.27
2017-11-28T01:37:28.417Z,15.90
2017-11-28T01:39:55.874Z,16.00
2017-11-28T01:42:23.292Z,16.43
2017-11-28T01:44:50.700Z,16.40
2017-11-28T01:47:18.089Z,16.37
2017-11-28T01:49:45.488Z,16.33
2017-11-28T01:52:12.884Z,16.47
2017-11-28T01:54:40.276Z,15.57
2017-11-28T01:57:07.688Z,17.00
2017-11-28T01:59:35.072Z,15.10
2017-11-28T02:02:02.499Z,16.87
2017-11-28T02:04:29.869Z,16.23
2017-11-28T02:06:57.278Z,15.77
2017-11-28T02:09:24.652Z,15.80
2017-11-28T02:11:52.039Z,15.73
2017-11-28T02:14:19.432Z,15.80
2017-11-28T02:16:46.818Z,17.00
2017-11-28T02:19:14.219Z,15.53
2017-11-28T02:21:41.616Z,17.10
2017-11-28T02:24:09.015Z,16.67
2017-11-28T02:26:36.407Z,17.17
2017-11-28T02:29:03.795Z,16.97
2017-11-28T02:31:31.192Z,17.27
2017-11-28T02:33:58.576Z,18.30
2017-11-28T02:36:25.968Z,18.97
2017-11-28T02:38:53.356Z,20.07
2017-11-28T02:41:20.756Z,18.93
2017-11-28T02:43:48.929Z,18.80
2017-11-28T02:46:17.221Z,19.47
2017-11-28T02:48:55.976Z,19.77
2017-11-28T02:51:23.360Z,20.80
2017-11-28T02:53:50.766Z,20.17
2017-11-28T02:56:18.152Z,20.60
2017-11-28T02:58:50.806Z,21.70
2017-11-28T03:01:19.007Z,21.70
2017-11-28T03:03:46.409Z,20.73
2017-11-28T03:06:13.792Z,20.17
2017-11-28T03:08:41.188Z,19.90
2017-11-28T03:11:08.580Z,19.70
2017-11-28T03:13:36.673Z,20.83
2017-11-28T03:19:03.707Z,21.27
2017-11-28T03:21:31.108Z,21.13
2017-11-28T03:26:55.360Z,21.00
2017-11-28T03:29:27.240Z,21.23
2017-11-28T03:31:54.631Z,20.00
2017-11-28T03:34:22.028Z,19.90
2017-11-28T03:36:49.432Z,21.73
2017-11-28T03:39:16.815Z,20.63
2017-11-28T03:41:44.208Z,20.00
2017-11-28T03:47:10.983Z,21.17
2017-11-28T03:49:38.380Z,20.13
2017-11-28T03:52:05.772Z,19.70
2017-11-28T03:54:33.163Z,21.93
2017-11-28T03:57:00.566Z,20.83
2017-11-28T03:59:27.961Z,21.47
2017-11-28T04:01:55.374Z,20.90
2017-11-28T04:04:22.760Z,20.13
2017-11-28T04:06:50.163Z,20.93
2017-11-28T04:09:17.560Z,20.50
2017-11-28T04:11:44.948Z,19.23
2017-11-28T04:14:12.345Z,18.80
2017-11-28T04:16:39.735Z,19.30
2017-11-28T04:19:07.128Z,18.10
2017-11-28T04:21:34.533Z,18.80
2017-11-28T04:24:01.917Z,18.17
2017-11-28T04:26:29.317Z,18.63
2017-11-28T04:28:56.734Z,17.97
2017-11-28T04:31:24.109Z,17.30
2017-11-28T04:33:51.500Z,18.47
2017-11-28T04:36:18.889Z,19.30
2017-11-28T04:38:46.280Z,20.00
2017-11-28T04:41:13.668Z,19.87
2017-11-28T04:43:41.056Z,20.30
2017-11-28T04:46:08.452Z,18.70
2017-11-28T04:48:35.835Z,19.50
2017-11-28T04:51:03.248Z,19.67
2017-11-28T04:53:30.649Z,19.60
2017-11-28T04:55:58.028Z,18.50
2017-11-28T04:58:25.432Z,19.00
2017-11-28T05:00:53.481Z,16.43
2017-11-28T05:03:20.911Z,17.47
2017-11-28T05:05:48.300Z,17.83
2017-11-28T05:08:15.719Z,17.37
2017-11-28T05:10:43.144Z,17.47
2017-11-28T05:13:10.540Z,17.03
2017-11-28T05:15:37.968Z,16.90
2017-11-28T05:18:05.353Z,17.33
2017-11-28T05:20:32.765Z,17.77
2017-11-28T05:23:00.150Z,18.90
2017-11-28T05:25:27.550Z,18.33
2017-11-28T05:27:54.970Z,17.80
2017-11-28T05:30:22.367Z,17.40
2017-11-28T05:32:49.769Z,17.63
2017-11-28T05:35:17.159Z,20.27
2017-11-28T05:37:44.571Z,17.30
2017-11-28T05:40:11.960Z,17.43
2017-11-28T05:42:39.345Z,16.30
2017-11-28T05:45:06.730Z,18.53
2017-11-28T05:47:34.155Z,17.90
2017-11-28T05:50:02.228Z,19.30
2017-11-28T05:52:29.656Z,18.17
2017-11-28T05:54:57.044Z,18.23
2017-11-28T05:57:24.444Z,18.37
2017-11-28T05:59:52.178Z,18.53
2017-11-28T06:02:19.653Z,19.43
2017-11-28T06:04:47.051Z,18.07
2017-11-28T06:07:14.470Z,19.17
2017-11-28T06:09:41.847Z,18.50
2017-11-28T06:12:09.240Z,17.83
2017-11-28T06:14:36.635Z,18.10
2017-11-28T06:17:04.061Z,17.67
2017-11-28T06:19:31.452Z,17.37
2017-11-28T06:21:58.850Z,18.40
2017-11-28T06:24:26.268Z,18.17
2017-11-28T06:26:53.662Z,18.03
2017-11-28T06:29:21.080Z,17.87
2017-11-28T06:31:48.476Z,17.87
2017-11-28T06:34:15.865Z,17.87
2017-11-28T06:36:43.256Z,17.60
2017-11-28T06:39:10.643Z,19.40
2017-11-28T06:41:38.053Z,19.17
2017-11-28T06:44:05.449Z,16.73
2017-11-28T06:46:32.839Z,17.20
2017-11-28T06:49:00.239Z,17.30
2017-11-28T06:51:27.656Z,17.87
2017-11-28T06:53:55.045Z,16.60
2017-11-28T06:56:22.437Z,17.13
2017-11-28T06:58:49.819Z,17.70
2017-11-28T07:01:17.212Z,17.03
2017-11-28T07:03:44.638Z,17.67
2017-11-28T07:06:12.036Z,18.23
2017-11-28T07:08:39.433Z,16.90
2017-11-28T07:11:06.851Z,18.30
2017-11-28T07:13:34.312Z,17.10
2017-11-28T07:16:01.671Z,18.47
2017-11-28T07:18:29.115Z,18.00
2017-11-28T07:20:56.562Z,16.27
2017-11-28T07:23:23.945Z,24.83
2017-11-28T07:25:51.353Z,17.83
2017-11-28T07:28:18.743Z,17.47
2017-11-28T07:30:46.165Z,18.63
2017-11-28T07:33:13.564Z,17.90
2017-11-28T07:35:40.947Z,17.07
2017-11-28T07:38:08.365Z,17.47
2017-11-28T07:40:35.750Z,16.80
2017-11-28T07:43:03.212Z,19.87
2017-11-28T07:45:30.604Z,18.00
2017-11-28T07:47:57.986Z,17.83
2017-11-28T07:50:25.373Z,19.23
2017-11-28T07:52:52.782Z,19.20
2017-11-28T07:55:20.208Z,19.40
2017-11-28T07:57:47.668Z,19.47
2017-11-28T08:00:15.055Z,17.87
2017-11-28T08:02:42.500Z,16.77
2017-11-28T08:05:09.921Z,18.60
2017-11-28T08:07:37.349Z,18.30
2017-11-28T08:10:04.741Z,18.30
2017-11-28T08:12:32.119Z,20.07
2017-11-28T08:14:59.545Z,20.20
2017-11-28T08:17:26.948Z,20.23
2017-11-28T08:19:54.353Z,22.20
2017-11-28T08:22:21.744Z,22.20
2017-11-28T08:24:49.134Z,21.83
2017-11-28T08:27:16.545Z,19.93
2017-11-28T08:29:43.938Z,23.13
2017-11-28T08:32:11.341Z,22.10
2017-11-28T08:34:38.737Z,28.40
2017-11-28T08:37:06.134Z,23.40
2017-11-28T08:39:33.530Z,22.80
2017-11-28T08:42:00.936Z,21.80
2017-11-28T08:44:28.347Z,21.40
2017-11-28T08:46:55.774Z,22.80
2017-11-28T08:49:23.187Z,23.53
2017-11-28T08:51:50.584Z,23.60
2017-11-28T08:54:18.003Z,22.43
2017-11-28T08:56:45.433Z,26.73
2017-11-28T08:59:12.872Z,27.23
2017-11-28T09:01:40.259Z,22.67
2017-11-28T09:04:07.690Z,22.90
2017-11-28T09:06:35.066Z,20.27
2017-11-28T09:09:02.468Z,23.00
2017-11-28T09:11:29.860Z,21.60
2017-11-28T09:13:57.248Z,19.67
2017-11-28T09:16:24.640Z,17.93
2017-11-28T09:18:52.029Z,18.97
2017-11-28T09:21:19.448Z,19.13
2017-11-28T09:23:46.834Z,20.33
2017-11-28T09:26:14.227Z,18.43
2017-11-28T09:28:41.648Z,18.50
2017-11-28T09:31:09.028Z,17.43
2017-11-28T09:33:36.440Z,18.30
2017-11-28T09:36:03.828Z,16.77
2017-11-28T09:38:31.226Z,18.43
2017-11-28T09:40:58.618Z,18.43
2017-11-28T09:43:26.011Z,17.03
2017-11-28T09:45:53.437Z,15.13
2017-11-28T09:48:20.824Z,17.60
2017-11-28T09:50:48.219Z,16.33
2017-11-28T09:53:15.615Z,19.07
2017-11-28T09:55:43.004Z,17.17
2017-11-28T09:58:10.412Z,27.03
2017-11-28T10:00:37.788Z,16.13
2017-11-28T10:03:05.202Z,18.83
2017-11-28T10:05:32.603Z,20.67
2017-11-28T10:08:00.015Z,15.73
2017-11-28T10:10:27.416Z,15.33
2017-11-28T10:12:54.810Z,15.50
2017-11-28T10:15:22.187Z,15.67
2017-11-28T10:17:49.576Z,17.87
2017-11-28T10:20:17.039Z,19.00
2017-11-28T10:22:44.484Z,17.60
2017-11-28T10:25:11.879Z,16.80
2017-11-28T10:27:39.260Z,17.73
2017-11-28T10:30:06.656Z,18.50
2017-11-28T10:32:34.051Z,16.03
2017-11-28T10:35:01.445Z,16.93
2017-11-28T10:37:28.829Z,17.47
2017-11-28T10:39:56.208Z,16.97
2017-11-28T10:42:23.595Z,17.77
2017-11-28T10:44:50.983Z,22.90
2017-11-28T10:47:18.397Z,16.60
2017-11-28T10:49:45.788Z,18.30
2017-11-28T10:52:13.490Z,18.60
2017-11-28T10:54:40.883Z,18.07
2017-11-28T10:57:08.276Z,16.43
2017-11-28T10:59:35.689Z,17.87
2017-11-28T11:02:03.076Z,16.43
2017-11-28T11:04:30.471Z,16.40
2017-11-28T11:06:57.860Z,15.53
2017-11-28T11:09:25.243Z,15.37
2017-11-28T11:11:52.640Z,15.00
2017-11-28T11:14:20.029Z,15.43
2017-11-28T11:16:47.413Z,21.77
2017-11-28T11:19:14.804Z,16.20
2017-11-28T11:21:42.193Z,13.23
2017-11-28T11:24:09.593Z,13.50
2017-11-28T11:26:36.988Z,14.20
2017-11-28T11:29:04.371Z,16.70
2017-11-28T11:31:31.766Z,19.40
2017-11-28T11:33:59.156Z,14.83
2017-11-28T11:36:26.568Z,12.20
2017-11-28T11:38:53.956Z,14.70
2017-11-28T11:41:21.349Z,13.00
2017-11-28T11:43:48.760Z,15.00
2017-11-28T11:46:16.147Z,15.80
2017-11-28T11:48:43.547Z,15.40
2017-11-28T11:51:10.928Z,13.67
2017-11-28T11:53:38.321Z,14.13
2017-11-28T11:56:05.713Z,12.10
2017-11-28T11:58:33.112Z,12.70
2017-11-28T12:01:00.509Z,17.47
2017-11-28T12:03:27.896Z,11.97
2017-11-28T12:05:55.284Z,13.53
2017-11-28T12:08:22.684Z,13.13
2017-11-28T12:10:50.085Z,13.70
2017-11-28T12:13:17.475Z,13.10
2017-11-28T12:15:44.856Z,14.47
2017-11-28T12:18:12.243Z,13.80
2017-11-28T12:20:39.635Z,13.87
2017-11-28T12:23:07.029Z,14.03
2017-11-28T12:25:34.443Z,14.50
2017-11-28T12:28:01.833Z,18.17
2017-11-28T12:30:29.230Z,12.33
2017-11-28T12:32:56.614Z,15.07
2017-11-28T12:35:23.998Z,12.97
2017-11-28T12:37:51.393Z,12.20
2017-11-28T12:40:18.776Z,11.27
2017-11-28T12:42:46.172Z,11.33
2017-11-28T12:45:13.565Z,13.10
2017-11-28T12:47:40.943Z,13.33
2017-11-28T12:50:08.337Z,10.00
2017-11-28T12:52:35.720Z,10.70
2017-11-28T12:55:03.115Z,9.40
2017-11-28T12:57:30.491Z,11.80
2017-11-28T12:59:57.884Z,14.70
2017-11-28T13:02:25.283Z,12.40
2017-11-28T13:04:52.669Z,15.10
2017-11-28T13:07:20.052Z,9.60
2017-11-28T13:09:47.445Z,9.80
2017-11-28T13:12:14.835Z,9.73
2017-11-28T13:14:42.229Z,10.93
2017-11-28T13:17:09.609Z,12.70
2017-11-28T13:19:37.007Z,9.77
2017-11-28T13:22:04.388Z,9.23
2017-11-28T13:24:31.764Z,9.80
2017-11-28T13:26:59.193Z,10.00
2017-11-28T13:29:26.576Z,11.83
2017-11-28T13:31:53.961Z,10.47
2017-11-28T13:34:21.372Z,10.23
2017-11-28T13:36:48.755Z,12.30
2017-11-28T13:39:16.168Z,11.93
2017-11-28T13:41:43.600Z,11.57
2017-11-28T13:44:10.974Z,12.77
2017-11-28T13:46:38.393Z,13.30
2017-11-28T13:49:05.800Z,12.60
2017-11-28T13:51:33.232Z,12.40
2017-11-28T13:54:00.628Z,10.47
2017-11-28T13:56:30.746Z,10.83
2017-11-28T13:58:58.127Z,10.90
2017-11-28T14:01:25.533Z,11.80
2017-11-28T14:03:52.916Z,10.53
2017-11-28T14:06:20.308Z,11.50
2017-11-28T14:08:47.700Z,13.70
2017-11-28T14:11:15.096Z,11.23
2017-11-28T14:13:42.485Z,11.30
2017-11-28T14:16:09.938Z,10.87
2017-11-28T14:18:37.311Z,11.67
2017-11-28T14:24:08.599Z,12.00
2017-11-28T14:26:37.346Z,11.77
2017-11-28T14:29:05.517Z,11.13
2017-11-28T14:31:35.184Z,11.63
2017-11-28T14:34:04.108Z,12.53
2017-11-28T14:36:31.487Z,10.80
2017-11-28T14:39:22.568Z,11.93
2017-11-28T14:42:06.744Z,10.67
2017-11-28T14:44:37.515Z,10.60
2017-11-28T14:47:04.900Z,10.63
2017-11-28T14:49:32.284Z,13.20
2017-11-28T14:52:10.503Z,11.70
2017-11-28T14:54:43.308Z,11.60
2017-11-28T14:57:16.207Z,14.80
2017-11-28T14:59:49.173Z,12.23
2017-11-28T15:02:22.207Z,12.20
2017-11-28T15:04:55.097Z,12.13
2017-11-28T15:07:28.107Z,12.00
2017-11-28T15:10:01.086Z,10.73
2017-11-28T15:12:34.127Z,11.77
2017-11-28T15:15:07.025Z,10.93
2017-11-28T15:17:39.883Z,9.20
2017-11-28T15:20:08.205Z,9.20
2017-11-28T15:22:39.423Z,8.83
2017-11-28T15:28:09.654Z,11.20
2017-11-28T15:30:37.040Z,9.23
2017-11-28T15:33:04.432Z,9.87
2017-11-28T15:35:31.812Z,10.57
2017-11-28T15:37:59.201Z,10.13
2017-11-28T15:40:26.589Z,12.27
2017-11-28T15:42:53.980Z,11.60
2017-11-28T15:45:21.383Z,10.90
2017-11-28T15:47:48.783Z,12.00
2017-11-28T15:50:16.169Z,12.53
2017-11-28T15:52:43.580Z,11.37
2017-11-28T15:55:10.971Z,11.77
2017-11-28T15:57:38.375Z,12.90
2017-11-28T16:00:05.769Z,13.30
2017-11-28T16:02:33.165Z,12.73
2017-11-28T16:05:00.575Z,11.70
2017-11-28T16:07:27.964Z,12.70
2017-11-28T16:09:55.368Z,12.30
2017-11-28T16:12:22.774Z,11.93
2017-11-28T16:14:50.173Z,12.23
2017-11-28T16:17:17.571Z,10.93
2017-11-28T16:19:44.965Z,11.50
2017-11-28T16:22:12.368Z,10.90
2017-11-28T16:24:39.757Z,10.63
2017-11-28T16:27:07.179Z,11.60
2017-11-28T16:29:34.624Z,10.00
2017-11-28T16:32:02.009Z,12.07
2017-11-28T16:34:29.408Z,9.30
2017-11-28T16:36:56.815Z,9.20
2017-11-28T16:39:24.208Z,11.90
2017-11-28T16:41:51.604Z,12.13
2017-11-28T16:44:19.004Z,10.00
2017-11-28T16:46:46.405Z,10.00
2017-11-28T16:49:13.784Z,9.80
2017-11-28T16:51:41.168Z,9.57
2017-11-28T16:54:08.553Z,9.70
2017-11-28T16:56:35.944Z,9.60
2017-11-28T16:59:03.332Z,9.23
2017-11-28T17:01:30.724Z,10.23
2017-11-28T17:03:58.102Z,9.73
2017-11-28T17:06:25.517Z,9.93
2017-11-28T17:08:52.892Z,10.10
2017-11-28T17:11:20.303Z,11.07
2017-11-28T17:13:47.687Z,10.13
2017-11-28T17:16:15.073Z,10.17
2017-11-28T17:18:42.473Z,10.43
2017-11-28T17:21:09.860Z,10.63
2017-11-28T17:23:37.265Z,10.17
2017-11-28T17:26:04.657Z,11.23
2017-11-28T17:28:32.417Z,11.03
2017-11-28T17:31:03.779Z,11.47
2017-11-28T17:33:31.175Z,11.83
2017-11-28T17:35:58.583Z,10.83
2017-11-28T17:38:25.980Z,10.80
2017-11-28T17:40:53.375Z,10.85
2017-11-28T17:43:20.783Z,10.77
2017-11-28T17:45:48.170Z,11.23
2017-11-28T17:48:15.577Z,10.77
2017-11-28T17:50:42.979Z,11.03
2017-11-28T17:53:10.366Z,10.43
2017-11-28T17:55:41.619Z,10.60
2017-11-28T17:58:09.790Z,10.67
2017-11-28T18:00:37.192Z,10.20
2017-11-28T18:03:04.563Z,11.00
2017-11-28T18:05:31.961Z,11.40
2017-11-28T18:07:59.355Z,10.97
2017-11-28T18:10:26.755Z,12.95
2017-11-28T18:12:54.159Z,12.60
2017-11-28T18:15:21.543Z,10.67
2017-11-28T18:17:49.204Z,12.47
2017-11-28T18:20:16.900Z,11.73
2017-11-28T18:22:44.296Z,11.30
2017-11-28T18:25:11.697Z,12.57
2017-11-28T18:27:39.084Z,15.70
2017-11-28T18:30:06.480Z,13.90
2017-11-28T18:32:33.872Z,13.30
2017-11-28T18:35:01.269Z,12.23
2017-11-28T18:37:28.670Z,11.93
2017-11-28T18:39:56.047Z,12.10
2017-11-28T18:42:23.444Z,12.30
2017-11-28T18:44:50.847Z,15.13
2017-11-28T18:47:18.232Z,12.07
2017-11-28T18:49:45.639Z,12.50
2017-11-28T18:52:13.031Z,12.00
2017-11-28T18:54:40.416Z,13.00
2017-11-28T18:57:07.816Z,13.37
2017-11-28T18:59:35.207Z,13.70
2017-11-28T19:02:02.615Z,15.35
2017-11-28T19:04:30.008Z,15.83
2017-11-28T19:06:57.411Z,14.10
2017-11-28T19:09:24.804Z,14.13
2017-11-28T19:11:52.203Z,14.37
2017-11-28T19:14:19.586Z,14.83
2017-11-28T19:16:55.371Z,15.87
2017-11-28T19:19:22.767Z,14.00
2017-11-28T19:21:50.156Z,14.97
2017-11-28T19:24:17.544Z,15.27
2017-11-28T19:26:45.088Z,14.48
2017-11-28T19:29:12.475Z,14.50
2017-11-28T19:31:39.878Z,15.03
2017-11-28T19:34:08.314Z,14.60
2017-11-28T19:36:35.776Z,15.00
2017-11-28T19:39:03.208Z,14.83
2017-11-28T19:41:30.590Z,15.77
2017-11-28T19:43:57.992Z,14.53
2017-11-28T19:46:25.396Z,15.40
2017-11-28T19:48:52.783Z,14.23
2017-11-28T19:51:20.182Z,15.23
2017-11-28T19:53:47.569Z,15.77
2017-11-28T19:56:15.945Z,16.37
2017-11-28T19:58:43.355Z,15.27
2017-11-28T20:01:10.760Z,15.73
2017-11-28T20:03:38.148Z,16.52
2017-11-28T20:06:05.554Z,16.45
2017-11-28T20:08:32.961Z,16.70
2017-11-28T20:11:00.376Z,16.80
2017-11-28T20:13:27.822Z,17.75
2017-11-28T20:15:58.576Z,16.62
2017-11-28T20:18:26.015Z,16.03
2017-11-28T20:20:53.419Z,15.23
2017-11-28T20:23:20.812Z,15.10
2017-11-28T20:25:48.210Z,16.58
2017-11-28T20:28:15.626Z,15.80
2017-11-28T20:30:43.025Z,15.43
2017-11-28T20:33:10.461Z,15.35
2017-11-28T20:35:37.841Z,14.80
2017-11-28T20:38:05.236Z,14.90
2017-11-28T20:40:32.640Z,14.68
2017-11-28T20:43:00.051Z,16.02
2017-11-28T20:45:27.467Z,15.80
2017-11-28T20:47:54.874Z,15.63
2017-11-28T20:50:22.251Z,16.27
2017-11-28T20:52:49.640Z,17.17
2017-11-28T20:55:17.032Z,16.33
2017-11-28T20:57:44.444Z,15.53
2017-11-28T21:00:11.842Z,14.47
2017-11-28T21:02:39.231Z,15.83
2017-11-28T21:05:06.637Z,15.40
2017-11-28T21:07:34.021Z,16.37
2017-11-28T21:10:01.435Z,16.77
2017-11-28T21:12:28.819Z,16.60
2017-11-28T21:14:56.220Z,15.17
2017-11-28T21:17:23.623Z,16.08
2017-11-28T21:19:51.024Z,17.80
2017-11-28T21:22:18.435Z,18.23
2017-11-28T21:24:45.845Z,17.27
2017-11-28T21:27:13.224Z,18.70
2017-11-28T21:29:40.637Z,17.37
2017-11-28T21:32:08.034Z,17.87
2017-11-28T21:34:35.435Z,17.10
2017-11-28T21:37:02.823Z,17.95
2017-11-28T21:39:30.274Z,18.90
2017-11-28T21:41:57.664Z,17.20
2017-11-28T21:44:25.063Z,17.77
2017-11-28T21:46:52.480Z,16.08
2017-11-28T21:49:19.871Z,15.03
2017-11-28T21:51:47.290Z,15.57
2017-11-28T21:54:14.683Z,17.73
2017-11-28T21:56:42.084Z,16.25
2017-11-28T21:59:09.508Z,19.05
2017-11-28T22:01:36.896Z,17.73
2017-11-28T22:04:04.293Z,17.43
2017-11-28T22:06:31.696Z,17.17
2017-11-28T22:08:59.088Z,18.40
2017-11-28T22:11:26.508Z,19.37
2017-11-28T22:13:53.893Z,17.70
2017-11-28T22:16:21.331Z,18.23
2017-11-28T22:18:48.726Z,18.55
2017-11-28T22:21:16.112Z,18.50
2017-11-28T22:23:43.511Z,19.27
2017-11-28T22:26:10.904Z,19.33
2017-11-28T22:28:38.316Z,17.75
2017-11-28T22:31:05.720Z,18.37
2017-11-28T22:33:33.136Z,19.60
2017-11-28T22:36:00.540Z,18.10
2017-11-28T22:38:27.944Z,19.08
2017-11-28T22:40:55.354Z,20.12
2017-11-28T22:43:22.751Z,19.20
2017-11-28T22:45:50.184Z,20.07
2017-11-28T22:48:17.588Z,19.12
2017-11-28T22:50:44.973Z,18.40
2017-11-28T22:53:12.372Z,19.40
2017-11-28T22:55:39.768Z,18.93
2017-11-28T22:58:07.212Z,17.93
2017-11-28T23:00:34.610Z,18.10
2017-11-28T23:03:02.012Z,17.50
2017-11-28T23:05:29.411Z,18.23
2017-11-28T23:07:56.833Z,18.48
2017-11-28T23:10:24.211Z,19.40
2017-11-28T23:12:51.620Z,19.17
2017-11-28T23:15:19.022Z,18.97
2017-11-28T23:17:46.428Z,18.62
2017-11-28T23:20:13.855Z,18.70
2017-11-28T23:22:41.255Z,20.42
2017-11-28T23:25:08.656Z,18.83
2017-11-28T23:27:36.059Z,19.58
2017-11-28T23:30:03.460Z,20.00
2017-11-28T23:32:30.868Z,18.03
2017-11-28T23:34:58.268Z,19.05
2017-11-28T23:37:25.693Z,19.33
2017-11-28T23:39:53.089Z,19.70
2017-11-28T23:42:20.472Z,19.50
2017-11-28T23:44:47.875Z,18.67
2017-11-28T23:47:15.299Z,19.57
2017-11-28T23:49:42.719Z,19.23
2017-11-28T23:52:10.130Z,20.20
2017-11-28T23:54:37.521Z,18.73
2017-11-28T23:57:04.906Z,19.03
2017-11-28T23:59:32.293Z,18.70
